Aeroporto :
LOGIN :

Iscrizione | Disclaimer

   EN    FR    IT 

 










Sommario :    VFR   VFR Marginale   IFR   IFR Intensivo   IFR Molto Intensivo
Visibilità : 
Base nubi : 
>= 8 km
>= 3000ft
5 / 8 km
1000 / 3000 ft
1500m / 5 km
500 / 1000 ft
800 / 1500m
200 / 500 ft
< 800m
< 200 ft
Simboli :   Temporali  Nebbia  Neve Forte  Precipitazioni Forti  Vento > 20 kt
SIGMETs :   Varie  Temporali  Ghiacco  Turbolenza  Onda orograficha  Ceneri Vulcaniche






- Altitudine del aeroporto : 1966 ft
- Codice IATA : SGE


EDGS - Siegerland

ULTIMO METAR :
  • 090950Z 23008KT 200V260 0200 R31/0275N FZFG M01/M01 Q1004

METARs OBSOLETI :
  • 090920Z 21007KT 0500 R13/0900D FZFG VV/// M01/M02 Q1004
  • 090850Z 21006KT 190V250 0400 R13/0900U FZFG VV/// M01/M01 Q1004
  • 090820Z 22006KT 0700 R13/1900D FZFG OVC002 M01/M01 Q1003
  • 090750Z 20005KT 9999 BCFG FEW015 BKN017 BKN027 M00/M00 Q1003
  • 090720Z AUTO 21006KT 9999 SCT015/// M01/M01 Q1003

TAF COR TAF EDGS
Valido dal 09 a 09 ore il 09 a 18 ore UTC


090858Z 0909/0918 22007KT 1200 BCFG OVC002
TEMPO 0909/0918 0300 FZFG BKN000



MetMap, La meteo Aeronautica in un colpo d'occhio ! - Copyright ORBIFLY Dicembre 2007 - Disclaimer

ORBIFLY MET'MAP TEAM :

Programmazione e sviluppo : Alexandra Zaïnal
Concezione : Baudouin d'Aumeries
Aiuto per la programmazione : Marc-Olivier Méhu
Supporto tecnico e logistico : Manuel Goepfert
Aiuto per la traduzione : Arnaldo La Scala

Contatto : metmap@orbifly.com




FONTI E CREDITI :

   NOAA